createdAt,value
2022-10-11T00:01:12.048Z,1.13
2022-10-11T00:03:42.343Z,1.42
2022-10-11T00:06:12.985Z,1.10
2022-10-11T00:08:43.394Z,1.42
2022-10-11T00:11:14.131Z,1.50
2022-10-11T00:13:44.431Z,1.30
2022-10-11T00:16:17.044Z,1.67
2022-10-11T00:18:47.129Z,1.50
2022-10-11T00:21:18.869Z,1.92
2022-10-11T00:23:48.994Z,1.40
2022-10-11T00:26:19.924Z,1.70
2022-10-11T00:28:50.082Z,1.60
2022-10-11T00:31:20.312Z,1.60
2022-10-11T00:33:50.484Z,1.55
2022-10-11T00:36:20.893Z,1.67
2022-10-11T00:38:51.190Z,2.03
2022-10-11T00:41:21.855Z,1.65
2022-10-11T00:44:09.956Z,2.35
2022-10-11T00:46:43.170Z,2.33
2022-10-11T00:49:38.007Z,2.08
2022-10-11T00:52:33.972Z,2.28
2022-10-11T00:55:16.077Z,1.48
2022-10-11T00:57:51.162Z,2.05
2022-10-11T01:00:22.595Z,1.60
2022-10-11T01:02:53.077Z,2.03
2022-10-11T01:05:29.495Z,1.88
2022-10-11T01:08:02.552Z,1.85
2022-10-11T01:10:33.088Z,2.05
2022-10-11T01:13:33.897Z,2.13
2022-10-11T01:16:32.776Z,2.15
2022-10-11T01:19:43.752Z,2.15
2022-10-11T01:22:16.707Z,2.40
2022-10-11T01:25:08.054Z,2.35
2022-10-11T01:27:49.862Z,1.85
2022-10-11T01:30:27.891Z,1.95
2022-10-11T01:33:06.736Z,2.65
2022-10-11T01:36:04.258Z,2.20
2022-10-11T01:38:40.260Z,2.20
2022-10-11T01:41:22.913Z,2.55
2022-10-11T01:43:59.112Z,2.22
2022-10-11T01:46:30.967Z,2.05
2022-10-11T01:49:03.709Z,2.20
2022-10-11T01:51:47.193Z,2.70
2022-10-11T01:55:14.035Z,2.15
2022-10-11T01:58:32.818Z,2.45
2022-10-11T02:01:39.895Z,2.50
2022-10-11T02:04:31.404Z,2.30
2022-10-11T02:07:35.576Z,2.72
2022-10-11T02:10:23.985Z,2.67
2022-10-11T02:13:20.847Z,2.72
2022-10-11T02:15:52.865Z,2.25
2022-10-11T02:18:27.597Z,2.65
2022-10-11T02:21:02.392Z,2.20
2022-10-11T02:24:04.282Z,2.50
2022-10-11T02:26:35.766Z,2.88
2022-10-11T02:29:09.463Z,2.33
2022-10-11T02:31:40.376Z,2.15
2022-10-11T02:34:33.996Z,2.55
2022-10-11T02:37:39.210Z,2.60
2022-10-11T02:40:33.275Z,2.45
2022-10-11T02:43:13.118Z,2.42
2022-10-11T02:46:03.194Z,2.67
2022-10-11T02:48:38.133Z,2.80
2022-10-11T02:51:13.849Z,2.50
2022-10-11T02:53:44.271Z,2.85
2022-10-11T02:56:14.416Z,2.25
2022-10-11T02:58:44.577Z,2.42
2022-10-11T03:01:14.859Z,2.47
2022-10-11T03:03:45.090Z,2.80
2022-10-11T03:06:16.407Z,2.63
2022-10-11T03:08:46.752Z,2.40
2022-10-11T03:11:17.082Z,2.80
2022-10-11T03:13:47.281Z,2.35
2022-10-11T03:16:17.572Z,2.72
2022-10-11T03:18:47.992Z,2.45
2022-10-11T03:21:18.396Z,2.70
2022-10-11T03:23:48.524Z,2.53
2022-10-11T03:26:18.637Z,3.05
2022-10-11T03:28:48.733Z,2.78
2022-10-11T03:31:20.272Z,2.10
2022-10-11T03:33:50.532Z,2.45
2022-10-11T03:36:21.094Z,2.33
2022-10-11T03:38:51.335Z,2.00
2022-10-11T03:41:21.741Z,2.15
2022-10-11T03:43:51.855Z,2.22
2022-10-11T03:46:22.175Z,2.20
2022-10-11T03:48:52.317Z,2.10
2022-10-11T03:51:22.512Z,2.03
2022-10-11T03:53:52.716Z,2.08
2022-10-11T03:56:22.853Z,2.35
2022-10-11T03:58:52.994Z,2.10
2022-10-11T04:01:23.267Z,1.83
2022-10-11T04:03:53.457Z,2.13
2022-10-11T04:06:23.587Z,2.50
2022-10-11T04:08:53.876Z,2.28
2022-10-11T04:11:23.972Z,1.80
2022-10-11T04:13:54.099Z,2.10
2022-10-11T04:16:24.201Z,2.50
2022-10-11T04:18:54.459Z,2.47
2022-10-11T04:21:24.595Z,1.95
2022-10-11T04:23:54.709Z,2.33
2022-10-11T04:26:24.839Z,2.65
2022-10-11T04:28:55.061Z,2.35
2022-10-11T04:31:25.574Z,2.05
2022-10-11T04:33:55.684Z,2.25
2022-10-11T04:36:26.569Z,2.20
2022-10-11T04:38:57.855Z,2.58
2022-10-11T04:41:28.013Z,2.53
2022-10-11T04:43:58.291Z,1.92
2022-10-11T04:46:28.814Z,2.38
2022-10-11T04:48:59.344Z,2.13
2022-10-11T04:51:30.445Z,2.30
2022-10-11T04:54:00.545Z,2.83
2022-10-11T04:56:32.234Z,2.38
2022-10-11T04:59:02.369Z,2.20
2022-10-11T05:01:32.617Z,2.42
2022-10-11T05:04:02.789Z,2.08
2022-10-11T05:06:32.994Z,2.30
2022-10-11T05:09:03.265Z,2.15
2022-10-11T05:11:33.818Z,2.20
2022-10-11T05:14:04.071Z,2.42
2022-10-11T05:16:34.218Z,2.53
2022-10-11T05:19:04.445Z,2.38
2022-10-11T05:21:34.863Z,2.10
2022-10-11T05:24:05.045Z,2.42
2022-10-11T05:26:35.244Z,2.60
2022-10-11T05:29:05.767Z,2.50
2022-10-11T05:31:35.946Z,2.42
2022-10-11T05:34:06.612Z,2.78
2022-10-11T05:36:36.810Z,2.47
2022-10-11T05:39:07.177Z,2.38
2022-10-11T05:41:37.528Z,2.78
2022-10-11T05:44:09.450Z,2.25
2022-10-11T05:46:39.565Z,2.30
2022-10-11T05:49:09.846Z,2.17
2022-10-11T05:51:40.087Z,2.50
2022-10-11T05:54:10.267Z,2.50
2022-10-11T05:56:40.530Z,2.83
2022-10-11T05:59:10.640Z,2.40
2022-10-11T06:01:40.933Z,2.72
2022-10-11T06:04:13.358Z,2.58
2022-10-11T06:06:43.581Z,2.25
2022-10-11T06:09:14.347Z,2.78
2022-10-11T06:11:45.799Z,2.55
2022-10-11T06:14:15.941Z,2.47
2022-10-11T06:16:46.049Z,2.35
2022-10-11T06:19:16.232Z,2.20
2022-10-11T06:21:47.497Z,2.08
2022-10-11T06:24:18.059Z,3.00
2022-10-11T06:26:50.669Z,2.30
2022-10-11T06:29:21.411Z,2.28
2022-10-11T06:31:52.223Z,2.80
2022-10-11T06:34:22.627Z,2.25
2022-10-11T06:36:52.964Z,2.45
2022-10-11T06:39:23.207Z,2.25
2022-10-11T06:41:53.437Z,2.58
2022-10-11T06:44:23.696Z,2.25
2022-10-11T06:46:54.055Z,2.60
2022-10-11T06:49:24.197Z,2.25
2022-10-11T06:51:54.763Z,2.17
2022-10-11T06:54:24.894Z,2.42
2022-10-11T06:56:55.121Z,2.40
2022-10-11T06:59:28.649Z,2.60
2022-10-11T07:01:58.804Z,2.58
2022-10-11T07:04:30.420Z,2.58
2022-10-11T07:07:00.485Z,2.47
2022-10-11T07:09:30.792Z,2.33
2022-10-11T07:12:00.930Z,2.67
2022-10-11T07:14:31.249Z,2.53
2022-10-11T07:17:01.602Z,2.35
2022-10-11T07:19:32.761Z,2.38
2022-10-11T07:22:03.043Z,2.28
2022-10-11T07:24:33.131Z,2.20
2022-10-11T07:27:03.455Z,2.75
2022-10-11T07:29:33.679Z,2.10
2022-10-11T07:32:04.056Z,2.40
2022-10-11T07:34:34.273Z,2.65
2022-10-11T07:37:10.529Z,2.28
2022-10-11T07:39:40.721Z,2.20
2022-10-11T07:42:11.620Z,2.80
2022-10-11T07:44:41.800Z,2.50
2022-10-11T07:47:11.959Z,2.83
2022-10-11T07:49:42.145Z,2.90
2022-10-11T07:52:12.573Z,2.58
2022-10-11T07:54:42.916Z,2.40
2022-10-11T07:57:13.267Z,2.50
2022-10-11T07:59:47.835Z,2.60
2022-10-11T08:02:20.631Z,2.95
2022-10-11T08:04:50.978Z,2.33
2022-10-11T08:07:21.443Z,2.60
2022-10-11T08:09:52.284Z,3.00
2022-10-11T08:12:22.737Z,2.45
2022-10-11T08:14:53.092Z,2.47
2022-10-11T08:17:23.870Z,2.58
2022-10-11T08:19:54.840Z,2.67
2022-10-11T08:22:25.225Z,2.47
2022-10-11T08:24:55.411Z,2.80
2022-10-11T08:27:25.652Z,2.65
2022-10-11T08:29:56.010Z,2.88
2022-10-11T08:32:26.176Z,2.83
2022-10-11T08:34:56.274Z,2.78
2022-10-11T08:37:26.431Z,2.92
2022-10-11T08:39:56.666Z,2.40
2022-10-11T08:43:16.547Z,2.92
2022-10-11T08:45:55.221Z,2.75
2022-10-11T08:48:49.640Z,2.65
2022-10-11T08:51:25.949Z,3.15
2022-10-11T08:54:25.625Z,2.78
2022-10-11T08:56:56.010Z,2.75
2022-10-11T08:59:43.394Z,2.60
2022-10-11T09:03:07.043Z,3.08
2022-10-11T09:05:38.896Z,2.80
2022-10-11T09:08:09.015Z,2.60
2022-10-11T09:10:56.213Z,2.65
2022-10-11T09:13:55.044Z,3.05
2022-10-11T09:16:44.798Z,2.60
2022-10-11T09:19:48.133Z,2.72
2022-10-11T09:22:33.501Z,2.85
2022-10-11T09:25:25.594Z,2.70
2022-10-11T09:28:21.294Z,2.67
2022-10-11T09:30:55.145Z,2.65
2022-10-11T09:33:42.272Z,2.70
2022-10-11T09:36:19.608Z,2.85
2022-10-11T09:38:57.887Z,2.70
2022-10-11T09:41:59.764Z,2.63
2022-10-11T09:44:32.508Z,2.45
2022-10-11T09:47:03.215Z,2.90
2022-10-11T09:49:46.832Z,2.85
2022-10-11T09:52:25.472Z,2.30
2022-10-11T09:55:04.635Z,2.80
2022-10-11T09:57:38.126Z,2.72
2022-10-11T10:00:31.060Z,2.33
2022-10-11T10:03:04.533Z,2.33
2022-10-11T10:05:38.515Z,2.85
2022-10-11T10:08:14.439Z,2.60
2022-10-11T10:10:58.481Z,2.33
2022-10-11T10:13:44.296Z,2.30
2022-10-11T10:16:25.544Z,2.13
2022-10-11T10:19:17.947Z,2.10
2022-10-11T10:21:54.517Z,2.17
2022-10-11T10:24:32.811Z,2.20
2022-10-11T10:27:22.606Z,2.05
2022-10-11T10:30:10.874Z,2.22
2022-10-11T10:33:07.858Z,1.60
2022-10-11T10:36:04.700Z,1.88
2022-10-11T10:39:03.774Z,1.50
2022-10-11T10:41:33.948Z,1.33
2022-10-11T10:44:04.281Z,1.58
2022-10-11T10:47:03.174Z,1.58
2022-10-11T10:49:54.266Z,1.25
2022-10-11T10:52:58.478Z,1.38
2022-10-11T10:55:53.869Z,1.33
2022-10-11T10:58:51.581Z,1.17
2022-10-11T11:01:28.848Z,1.20
2022-10-11T11:04:35.874Z,1.23
2022-10-11T11:07:32.353Z,1.15
2022-10-11T11:10:10.475Z,1.00
2022-10-11T11:12:58.797Z,1.10
2022-10-11T11:15:41.330Z,1.00
2022-10-11T11:18:30.142Z,1.13
2022-10-11T11:21:28.423Z,1.35
2022-10-11T11:24:24.784Z,1.30
2022-10-11T11:27:16.040Z,1.13
2022-10-11T11:30:08.179Z,0.98
2022-10-11T11:33:05.298Z,1.23
2022-10-11T11:35:41.257Z,1.08
2022-10-11T11:38:38.561Z,1.10
2022-10-11T11:41:22.968Z,1.15
2022-10-11T11:44:21.804Z,1.23
2022-10-11T11:47:05.538Z,1.23
2022-10-11T11:52:31.926Z,1.00
2022-10-11T11:55:32.546Z,1.05
2022-10-11T11:58:30.265Z,1.10
2022-10-11T12:01:30.259Z,1.15
2022-10-11T12:04:27.893Z,0.93
2022-10-11T12:07:21.374Z,1.00
2022-10-11T12:09:57.000Z,1.13
2022-10-11T12:12:38.061Z,0.93
2022-10-11T12:15:27.689Z,1.48
2022-10-11T12:18:05.322Z,1.25
2022-10-11T12:20:42.542Z,1.00
2022-10-11T12:23:30.920Z,0.90
2022-10-11T12:26:24.851Z,1.40
2022-10-11T12:29:27.484Z,1.20
2022-10-11T12:32:02.446Z,1.85
2022-10-11T12:34:36.337Z,1.48
2022-10-11T12:37:21.795Z,1.67
2022-10-11T12:40:02.006Z,1.85
2022-10-11T12:42:38.238Z,1.73
2022-10-11T12:45:14.796Z,1.67
2022-10-11T12:48:06.358Z,2.20
2022-10-11T12:51:13.055Z,1.73
2022-10-11T12:53:43.156Z,1.92
2022-10-11T12:56:44.680Z,1.83
2022-10-11T12:59:21.478Z,1.70
2022-10-11T13:02:00.081Z,1.88
2022-10-11T13:04:33.397Z,1.80
2022-10-11T13:07:09.401Z,1.63
2022-10-11T13:09:48.123Z,2.03
2022-10-11T13:12:26.622Z,1.80
2022-10-11T13:15:09.113Z,1.83
2022-10-11T13:17:41.722Z,1.98
2022-10-11T13:20:26.990Z,1.85
2022-10-11T13:22:58.701Z,1.77
2022-10-11T13:25:31.344Z,1.95
2022-10-11T13:28:01.666Z,2.20
2022-10-11T13:30:34.934Z,1.77
2022-10-11T13:33:10.531Z,1.90
2022-10-11T13:35:41.449Z,2.03
2022-10-11T13:38:32.918Z,1.83
2022-10-11T13:41:09.802Z,2.22
2022-10-11T13:43:42.479Z,1.83
2022-10-11T13:46:21.367Z,1.75
2022-10-11T13:49:02.117Z,1.60
2022-10-11T13:51:40.077Z,1.80
2022-10-11T13:54:13.905Z,1.80
2022-10-11T13:56:55.181Z,1.67
2022-10-11T13:59:31.777Z,2.00
2022-10-11T14:02:05.948Z,1.80
2022-10-11T14:04:45.223Z,2.00
2022-10-11T14:07:41.520Z,1.75
2022-10-11T14:10:22.614Z,1.40
2022-10-11T14:13:32.728Z,1.77
2022-10-11T14:16:09.011Z,1.75
2022-10-11T14:19:02.377Z,1.75
2022-10-11T14:21:36.319Z,1.58
2022-10-11T14:24:12.237Z,1.80
2022-10-11T14:26:54.741Z,1.70
2022-10-11T14:29:31.145Z,2.10
2022-10-11T14:32:26.627Z,1.85
2022-10-11T14:34:56.977Z,1.60
2022-10-11T14:37:28.199Z,1.90
2022-10-11T14:39:58.308Z,1.65
2022-10-11T14:42:28.563Z,1.42
2022-10-11T14:44:58.700Z,1.60
2022-10-11T14:47:28.815Z,2.00
2022-10-11T14:49:58.907Z,1.73
2022-10-11T14:52:29.160Z,1.60
2022-10-11T14:54:59.306Z,1.77
2022-10-11T14:57:29.451Z,1.63
2022-10-11T14:59:59.637Z,1.85
2022-10-11T15:02:30.115Z,1.60
2022-10-11T15:05:00.286Z,1.70
2022-10-11T15:07:30.405Z,2.00
2022-10-11T15:10:00.638Z,1.77
2022-10-11T15:12:30.764Z,1.55
2022-10-11T15:15:00.913Z,1.73
2022-10-11T15:17:31.128Z,1.75
2022-10-11T15:20:01.359Z,1.73
2022-10-11T15:22:32.066Z,1.52
2022-10-11T15:25:02.182Z,1.80
2022-10-11T15:27:32.318Z,1.63
2022-10-11T15:30:02.755Z,1.30
2022-10-11T15:32:32.849Z,1.70
2022-10-11T15:35:03.010Z,1.50
2022-10-11T15:37:37.173Z,1.40
2022-10-11T15:40:24.830Z,1.90
2022-10-11T15:42:56.721Z,1.98
2022-10-11T15:45:27.551Z,1.60
2022-10-11T15:47:58.243Z,1.83
2022-10-11T15:50:39.024Z,1.70
2022-10-11T15:53:20.131Z,1.90
2022-10-11T15:55:56.266Z,1.70
2022-10-11T15:58:30.516Z,1.42
2022-10-11T16:01:03.943Z,1.40
2022-10-11T16:03:35.484Z,1.48
2022-10-11T16:06:05.997Z,1.92
2022-10-11T16:08:38.726Z,1.27
2022-10-11T16:11:09.996Z,1.33
2022-10-11T16:13:41.020Z,1.48
2022-10-11T16:16:13.308Z,1.45
2022-10-11T16:18:43.578Z,1.70
2022-10-11T16:21:17.198Z,1.92
2022-10-11T16:23:47.339Z,1.38
2022-10-11T16:26:18.179Z,1.83
2022-10-11T16:28:49.823Z,1.52
2022-10-11T16:31:22.527Z,1.95
2022-10-11T16:33:54.503Z,1.65
2022-10-11T16:36:37.841Z,1.42
2022-10-11T16:39:18.103Z,1.58
2022-10-11T16:41:49.430Z,1.52
2022-10-11T16:44:22.490Z,1.73
2022-10-11T16:46:53.559Z,1.20
2022-10-11T16:49:27.085Z,1.40
2022-10-11T16:52:00.870Z,1.27
2022-10-11T16:54:34.296Z,1.20
2022-10-11T16:57:04.479Z,1.38
2022-10-11T16:59:34.603Z,1.30
2022-10-11T17:02:06.719Z,1.40
2022-10-11T17:04:37.317Z,1.48
2022-10-11T17:07:13.978Z,1.25
2022-10-11T17:09:46.216Z,1.40
2022-10-11T17:12:18.683Z,1.52
2022-10-11T17:14:49.492Z,1.35
2022-10-11T17:17:20.701Z,1.30
2022-10-11T17:19:50.941Z,1.48
2022-10-11T17:22:22.651Z,1.70
2022-10-11T17:24:53.249Z,1.50
2022-10-11T17:27:23.644Z,1.55
2022-10-11T17:29:54.034Z,1.20
2022-10-11T17:32:24.339Z,1.30
2022-10-11T17:34:55.609Z,1.83
2022-10-11T17:37:25.990Z,1.60
2022-10-11T17:39:56.599Z,1.42
2022-10-11T17:42:27.106Z,1.38
2022-10-11T17:44:57.436Z,1.45
2022-10-11T17:47:27.914Z,1.83
2022-10-11T17:49:58.134Z,1.63
2022-10-11T17:52:28.543Z,1.35
2022-10-11T17:54:59.091Z,1.58
2022-10-11T17:57:29.535Z,1.27
2022-10-11T17:59:59.694Z,1.55
2022-10-11T18:02:29.801Z,1.17
2022-10-11T18:04:59.978Z,1.52
2022-10-11T18:07:30.220Z,1.50
2022-10-11T18:10:00.467Z,1.13
2022-10-11T18:12:31.750Z,1.80
2022-10-11T18:15:01.818Z,1.30
2022-10-11T18:17:31.910Z,1.30
2022-10-11T18:20:02.111Z,1.55
2022-10-11T18:22:32.310Z,1.30
2022-10-11T18:25:02.476Z,1.52
2022-10-11T18:27:32.665Z,1.30
2022-10-11T18:30:02.775Z,1.35
2022-10-11T18:32:33.406Z,1.50
2022-10-11T18:35:03.661Z,1.40
2022-10-11T18:37:33.914Z,1.67
2022-10-11T18:40:04.109Z,1.30
2022-10-11T18:42:34.350Z,1.55
2022-10-11T18:45:04.711Z,1.50
2022-10-11T18:47:34.871Z,1.42
2022-10-11T18:50:04.997Z,1.20
2022-10-11T18:52:35.174Z,1.25
2022-10-11T18:55:06.265Z,1.60
2022-10-11T18:57:36.620Z,1.27
2022-10-11T19:00:16.848Z,1.20
2022-10-11T19:02:57.825Z,1.23
2022-10-11T19:05:29.625Z,1.45
2022-10-11T19:07:59.926Z,1.40
2022-10-11T19:10:30.147Z,1.60
2022-10-11T19:13:00.373Z,1.42
2022-10-11T19:15:30.470Z,1.30
2022-10-11T19:18:00.800Z,1.27
2022-10-11T19:20:30.913Z,1.40
2022-10-11T19:23:01.044Z,1.45
2022-10-11T19:25:31.178Z,2.03
2022-10-11T19:28:01.411Z,2.08
2022-10-11T19:30:33.580Z,1.50
2022-10-11T19:33:03.722Z,1.48
2022-10-11T19:35:33.885Z,1.38
2022-10-11T19:38:04.261Z,1.83
2022-10-11T19:40:34.475Z,1.27
2022-10-11T19:43:04.951Z,1.67
2022-10-11T19:45:37.977Z,1.25
2022-10-11T19:48:08.138Z,1.40
2022-10-11T19:50:38.280Z,1.30
2022-10-11T19:53:09.209Z,1.80
2022-10-11T19:55:42.940Z,1.38
2022-10-11T19:58:15.818Z,1.35
2022-10-11T20:00:46.504Z,1.65
2022-10-11T20:03:16.709Z,1.50
2022-10-11T20:05:46.832Z,1.65
2022-10-11T20:08:17.202Z,1.60
2022-10-11T20:10:47.370Z,1.77
2022-10-11T20:13:17.737Z,1.70
2022-10-11T20:15:47.916Z,1.80
2022-10-11T20:18:18.087Z,1.98
2022-10-11T20:21:08.594Z,2.05
2022-10-11T20:23:39.125Z,1.75
2022-10-11T20:26:16.473Z,1.90
2022-10-11T20:28:47.276Z,1.88
2022-10-11T20:31:21.830Z,1.83
2022-10-11T20:33:52.211Z,1.95
2022-10-11T20:36:24.292Z,1.83
2022-10-11T20:38:54.467Z,2.10
2022-10-11T20:41:27.203Z,2.15
2022-10-11T20:44:00.441Z,1.85
2022-10-11T20:46:34.031Z,2.53
2022-10-11T20:49:07.312Z,1.90
2022-10-11T20:51:39.883Z,2.00
2022-10-11T20:54:10.629Z,1.92
2022-10-11T20:56:41.267Z,1.88
2022-10-11T20:59:12.309Z,2.00
2022-10-11T21:01:43.650Z,1.90
2022-10-11T21:04:22.917Z,2.35
2022-10-11T21:06:53.198Z,2.10
2022-10-11T21:09:23.352Z,2.08
2022-10-11T21:11:53.551Z,2.47
2022-10-11T21:14:24.071Z,2.22
2022-10-11T21:16:54.266Z,2.30
2022-10-11T21:19:25.327Z,2.10
2022-10-11T21:21:55.509Z,2.70
2022-10-11T21:24:25.743Z,1.83
2022-10-11T21:27:00.264Z,2.03
2022-10-11T21:29:30.882Z,2.20
2022-10-11T21:32:01.057Z,1.85
2022-10-11T21:34:31.200Z,2.20
2022-10-11T21:37:02.182Z,1.88
2022-10-11T21:39:32.312Z,1.98
2022-10-11T21:42:02.534Z,2.03
2022-10-11T21:44:38.587Z,2.22
2022-10-11T21:47:09.116Z,2.50
2022-10-11T21:49:39.772Z,2.10
2022-10-11T21:52:09.951Z,2.10
2022-10-11T21:54:40.276Z,2.35
2022-10-11T21:57:10.421Z,2.60
2022-10-11T21:59:40.584Z,2.22
2022-10-11T22:02:11.214Z,2.45
2022-10-11T22:04:41.509Z,2.30
2022-10-11T22:07:12.040Z,2.53
2022-10-11T22:09:42.469Z,2.42
2022-10-11T22:12:12.785Z,2.50
2022-10-11T22:14:43.117Z,2.50
2022-10-11T22:17:13.613Z,2.13
2022-10-11T22:19:43.966Z,2.00
2022-10-11T22:22:14.154Z,2.28
2022-10-11T22:24:44.827Z,1.73
2022-10-11T22:27:15.168Z,2.35
2022-10-11T22:29:45.361Z,2.10
2022-10-11T22:32:15.512Z,2.38
2022-10-11T22:34:45.954Z,2.38
2022-10-11T22:37:16.196Z,2.17
2022-10-11T22:39:46.421Z,2.20
2022-10-11T22:42:16.632Z,2.40
2022-10-11T22:44:46.822Z,2.38
2022-10-11T22:47:16.955Z,2.33
2022-10-11T22:49:47.042Z,2.50
2022-10-11T22:52:17.747Z,2.28
2022-10-11T22:54:47.855Z,2.90
2022-10-11T22:57:18.043Z,2.33
2022-10-11T22:59:48.151Z,2.38
2022-10-11T23:02:18.324Z,2.40
2022-10-11T23:04:48.485Z,2.72
2022-10-11T23:07:18.644Z,2.35
2022-10-11T23:09:48.756Z,2.70
2022-10-11T23:12:18.921Z,2.40
2022-10-11T23:14:49.158Z,2.50
2022-10-11T23:17:19.559Z,2.67
2022-10-11T23:19:49.768Z,2.53
2022-10-11T23:22:20.354Z,2.63
2022-10-11T23:24:50.495Z,2.55
2022-10-11T23:27:20.706Z,2.53
2022-10-11T23:29:50.828Z,2.70
2022-10-11T23:32:20.984Z,3.28
2022-10-11T23:34:51.339Z,3.00
2022-10-11T23:37:21.705Z,2.47
2022-10-11T23:39:51.906Z,2.50
2022-10-11T23:42:22.066Z,2.70
2022-10-11T23:44:53.630Z,2.33
2022-10-11T23:47:23.803Z,2.38
2022-10-11T23:49:54.346Z,2.50
2022-10-11T23:52:24.513Z,2.50
2022-10-11T23:54:54.612Z,2.40
2022-10-11T23:57:24.780Z,2.42
2022-10-11T23:59:55.011Z,2.50
